sensor_id;sensor_type;location;lat;lon;timestamp;pressure;altitude;pressure_sealevel;temperature;humidity
81107;BME280;70588;53.172;8.620;2023-07-28T00:01:34;100009.63;;;21.68;67.83
81107;BME280;70588;53.172;8.620;2023-07-28T00:03:59;100009.34;;;21.69;67.67
81107;BME280;70588;53.172;8.620;2023-07-28T00:06:24;100015.94;;;21.68;67.96
81107;BME280;70588;53.172;8.620;2023-07-28T00:08:50;100015.13;;;21.68;67.79
81107;BME280;70588;53.172;8.620;2023-07-28T00:11:15;100015.13;;;21.68;67.77
81107;BME280;70588;53.172;8.620;2023-07-28T00:13:42;100010.44;;;21.68;68.02
81107;BME280;70588;53.172;8.620;2023-07-28T00:16:08;100006.34;;;21.66;68.05
81107;BME280;70588;53.172;8.620;2023-07-28T00:18:34;100013.50;;;21.67;68.18
81107;BME280;70588;53.172;8.620;2023-07-28T00:20:59;100009.91;;;21.66;67.98
81107;BME280;70588;53.172;8.620;2023-07-28T00:23:25;100012.94;;;21.65;67.88
81107;BME280;70588;53.172;8.620;2023-07-28T00:25:50;100016.53;;;21.65;67.83
81107;BME280;70588;53.172;8.620;2023-07-28T00:28:16;100017.34;;;21.66;67.82
81107;BME280;70588;53.172;8.620;2023-07-28T00:30:41;100023.63;;;21.66;67.97
81107;BME280;70588;53.172;8.620;2023-07-28T00:33:06;100026.38;;;21.66;67.63
81107;BME280;70588;53.172;8.620;2023-07-28T00:35:32;100025.28;;;21.67;67.64
81107;BME280;70588;53.172;8.620;2023-07-28T00:37:57;100016.53;;;21.65;67.72
81107;BME280;70588;53.172;8.620;2023-07-28T00:40:23;100022.00;;;21.65;67.94
81107;BME280;70588;53.172;8.620;2023-07-28T00:42:49;100017.34;;;21.66;67.65
81107;BME280;70588;53.172;8.620;2023-07-28T00:45:15;100013.78;;;21.65;67.79
81107;BME280;70588;53.172;8.620;2023-07-28T00:47:40;100024.47;;;21.67;67.91
81107;BME280;70588;53.172;8.620;2023-07-28T00:50:08;100016.25;;;21.67;67.68
81107;BME280;70588;53.172;8.620;2023-07-28T00:52:35;100019.00;;;21.67;67.96
81107;BME280;70588;53.172;8.620;2023-07-28T00:55:01;100011.03;;;21.65;67.58
81107;BME280;70588;53.172;8.620;2023-07-28T00:57:26;100011.03;;;21.65;67.78
81107;BME280;70588;53.172;8.620;2023-07-28T00:59:52;100015.69;;;21.65;67.65
81107;BME280;70588;53.172;8.620;2023-07-28T01:02:18;100008.84;;;21.62;67.51
81107;BME280;70588;53.172;8.620;2023-07-28T01:04:44;100008.03;;;21.62;67.83
81107;BME280;70588;53.172;8.620;2023-07-28T01:07:17;100015.13;;;21.68;67.69
81107;BME280;70588;53.172;8.620;2023-07-28T01:12:30;100004.47;;;21.61;67.51
81107;BME280;70588;53.172;8.620;2023-07-28T01:14:55;99999.78;;;21.62;67.63
81107;BME280;70588;53.172;8.620;2023-07-28T01:17:21;100005.28;;;21.62;67.40
81107;BME280;70588;53.172;8.620;2023-07-28T01:19:49;100000.88;;;21.61;67.55
81107;BME280;70588;53.172;8.620;2023-07-28T01:25:06;100008.69;;;21.83;66.72
81107;BME280;70588;53.172;8.620;2023-07-28T01:27:34;100005.81;;;21.64;67.45
81107;BME280;70588;53.172;8.620;2023-07-28T01:30:00;100007.22;;;21.61;67.27
81107;BME280;70588;53.172;8.620;2023-07-28T01:32:26;100007.22;;;21.61;67.69
81107;BME280;70588;53.172;8.620;2023-07-28T01:34:51;100012.72;;;21.61;67.35
81107;BME280;70588;53.172;8.620;2023-07-28T01:37:17;100008.31;;;21.60;67.55
81107;BME280;70588;53.172;8.620;2023-07-28T01:39:42;100014.59;;;21.61;67.30
81107;BME280;70588;53.172;8.620;2023-07-28T01:42:07;100013.81;;;21.60;67.33
81107;BME280;70588;53.172;8.620;2023-07-28T01:44:33;100022.84;;;21.61;67.65
81107;BME280;70588;53.172;8.620;2023-07-28T01:46:58;100016.53;;;21.60;67.51
81107;BME280;70588;53.172;8.620;2023-07-28T01:49:23;100019.28;;;21.60;67.56
81107;BME280;70588;53.172;8.620;2023-07-28T01:51:49;100017.66;;;21.59;67.66
81107;BME280;70588;53.172;8.620;2023-07-28T01:54:14;100012.97;;;21.60;67.33
81107;BME280;70588;53.172;8.620;2023-07-28T01:56:39;100020.41;;;21.59;67.61
81107;BME280;70588;53.172;8.620;2023-07-28T01:59:05;100015.72;;;21.60;67.89
81107;BME280;70588;53.172;8.620;2023-07-28T02:01:30;100027.81;;;21.59;67.41
81107;BME280;70588;53.172;8.620;2023-07-28T02:03:55;100026.72;;;21.60;67.54
81107;BME280;70588;53.172;8.620;2023-07-28T02:06:21;100020.41;;;21.59;67.46
81107;BME280;70588;53.172;8.620;2023-07-28T02:08:46;100025.91;;;21.59;67.76
81107;BME280;70588;53.172;8.620;2023-07-28T02:11:11;100020.41;;;21.59;67.70
81107;BME280;70588;53.172;8.620;2023-07-28T02:13:37;100025.06;;;21.59;67.74
81107;BME280;70588;53.172;8.620;2023-07-28T02:16:02;100023.97;;;21.60;67.32
81107;BME280;70588;53.172;8.620;2023-07-28T02:18:28;100025.06;;;21.59;67.77
81107;BME280;70588;53.172;8.620;2023-07-28T02:20:53;100032.22;;;21.60;67.49
81107;BME280;70588;53.172;8.620;2023-07-28T02:23:18;100038.50;;;21.60;67.65
81107;BME280;70588;53.172;8.620;2023-07-28T02:25:44;100041.25;;;21.60;67.75
81107;BME280;70588;53.172;8.620;2023-07-28T02:28:10;100035.78;;;21.60;67.62
81107;BME280;70588;53.172;8.620;2023-07-28T02:30:36;100042.38;;;21.59;67.49
81107;BME280;70588;53.172;8.620;2023-07-28T02:33:01;100035.78;;;21.60;67.70
81107;BME280;70588;53.172;8.620;2023-07-28T02:35:27;100040.44;;;21.60;67.51
81107;BME280;70588;53.172;8.620;2023-07-28T02:37:52;100042.38;;;21.59;67.49
81107;BME280;70588;53.172;8.620;2023-07-28T02:40:17;100041.53;;;21.59;67.59
81107;BME280;70588;53.172;8.620;2023-07-28T02:42:43;100039.09;;;21.57;67.73
81107;BME280;70588;53.172;8.620;2023-07-28T02:45:08;100046.22;;;21.58;67.82
81107;BME280;70588;53.172;8.620;2023-07-28T02:47:35;100043.75;;;21.57;67.83
81107;BME280;70588;53.172;8.620;2023-07-28T02:50:00;100038.25;;;21.57;67.56
81107;BME280;70588;53.172;8.620;2023-07-28T02:52:26;100044.59;;;21.57;67.78
81107;BME280;70588;53.172;8.620;2023-07-28T02:54:51;100041.84;;;21.57;67.80
81107;BME280;70588;53.172;8.620;2023-07-28T02:57:17;100037.16;;;21.58;67.75
81107;BME280;70588;53.172;8.620;2023-07-28T02:59:42;100038.78;;;21.59;67.67
81107;BME280;70588;53.172;8.620;2023-07-28T03:02:07;100041.53;;;21.59;67.64
81107;BME280;70588;53.172;8.620;2023-07-28T03:04:33;100039.63;;;21.59;67.82
81107;BME280;70588;53.172;8.620;2023-07-28T03:06:58;100043.19;;;21.60;67.46
81107;BME280;70588;53.172;8.620;2023-07-28T03:09:23;100045.94;;;21.60;67.47
81107;BME280;70588;53.172;8.620;2023-07-28T03:11:49;100045.66;;;21.61;67.51
81107;BME280;70588;53.172;8.620;2023-07-28T03:14:14;100053.91;;;21.61;67.58
81107;BME280;70588;53.172;8.620;2023-07-28T03:16:41;100054.72;;;21.62;67.77
81107;BME280;70588;53.172;8.620;2023-07-28T03:19:07;100045.66;;;21.61;67.75
81107;BME280;70588;53.172;8.620;2023-07-28T03:21:32;100049.22;;;21.62;67.90
81107;BME280;70588;53.172;8.620;2023-07-28T03:23:58;100051.69;;;21.63;67.49
81107;BME280;70588;53.172;8.620;2023-07-28T03:26:23;100048.09;;;21.63;67.76
81107;BME280;70588;53.172;8.620;2023-07-28T03:28:49;100059.09;;;21.63;67.64
81107;BME280;70588;53.172;8.620;2023-07-28T03:31:14;100068.16;;;21.63;67.63
81107;BME280;70588;53.172;8.620;2023-07-28T03:33:39;100061.56;;;21.64;67.71
81107;BME280;70588;53.172;8.620;2023-07-28T03:36:05;100060.75;;;21.64;67.42
81107;BME280;70588;53.172;8.620;2023-07-28T03:38:30;100068.16;;;21.63;67.26
81107;BME280;70588;53.172;8.620;2023-07-28T03:40:56;100067.06;;;21.64;67.53
81107;BME280;70588;53.172;8.620;2023-07-28T03:43:21;100065.44;;;21.63;67.62
81107;BME280;70588;53.172;8.620;2023-07-28T03:45:47;100070.91;;;21.63;67.50
81107;BME280;70588;53.172;8.620;2023-07-28T03:48:12;100066.50;;;21.62;67.80
81107;BME280;70588;53.172;8.620;2023-07-28T03:50:38;100062.97;;;21.62;67.37
81107;BME280;70588;53.172;8.620;2023-07-28T03:53:03;100070.06;;;21.63;67.11
81107;BME280;70588;53.172;8.620;2023-07-28T03:55:29;100080.25;;;21.62;67.54
81107;BME280;70588;53.172;8.620;2023-07-28T03:57:54;100075.03;;;21.61;67.23
81107;BME280;70588;53.172;8.620;2023-07-28T04:00:19;100072.28;;;21.61;67.42
81107;BME280;70588;53.172;8.620;2023-07-28T04:02:45;100069.84;;;21.59;67.23
81107;BME280;70588;53.172;8.620;2023-07-28T04:05:11;100070.13;;;21.58;67.30
81107;BME280;70588;53.172;8.620;2023-07-28T04:07:37;100068.47;;;21.57;67.10
81107;BME280;70588;53.172;8.620;2023-07-28T04:10:02;100066.84;;;21.56;67.42
81107;BME280;70588;53.172;8.620;2023-07-28T04:12:28;100077.00;;;21.55;67.08
81107;BME280;70588;53.172;8.620;2023-07-28T04:14:53;100076.16;;;21.55;67.21
81107;BME280;70588;53.172;8.620;2023-07-28T04:17:18;100079.75;;;21.55;67.19
81107;BME280;70588;53.172;8.620;2023-07-28T04:19:44;100084.41;;;21.55;67.20
81107;BME280;70588;53.172;8.620;2023-07-28T04:22:09;100089.91;;;21.55;67.33
81107;BME280;70588;53.172;8.620;2023-07-28T04:24:34;100088.28;;;21.54;67.19
81107;BME280;70588;53.172;8.620;2023-07-28T04:27:00;100090.75;;;21.55;67.59
81107;BME280;70588;53.172;8.620;2023-07-28T04:29:25;100092.66;;;21.55;67.19
81107;BME280;70588;53.172;8.620;2023-07-28T04:31:52;100097.59;;;21.52;67.13
81107;BME280;70588;53.172;8.620;2023-07-28T04:34:17;100098.72;;;21.51;67.44
81107;BME280;70588;53.172;8.620;2023-07-28T04:36:43;100099.81;;;21.50;67.14
81107;BME280;70588;53.172;8.620;2023-07-28T04:39:08;100095.97;;;21.51;67.48
81107;BME280;70588;53.172;8.620;2023-07-28T04:41:33;100097.06;;;21.50;67.34
81107;BME280;70588;53.172;8.620;2023-07-28T04:43:59;100108.88;;;21.51;67.27
81107;BME280;70588;53.172;8.620;2023-07-28T04:46:24;100113.53;;;21.50;67.07
81107;BME280;70588;53.172;8.620;2023-07-28T04:48:50;100109.97;;;21.50;67.16
81107;BME280;70588;53.172;8.620;2023-07-28T04:51:15;100111.91;;;21.49;67.41
81107;BME280;70588;53.172;8.620;2023-07-28T04:53:41;100108.06;;;21.50;67.41
81107;BME280;70588;53.172;8.620;2023-07-28T04:56:06;100109.97;;;21.50;67.45
81107;BME280;70588;53.172;8.620;2023-07-28T04:58:33;100112.72;;;21.50;67.17
81107;BME280;70588;53.172;8.620;2023-07-28T05:00:58;100118.22;;;21.50;67.07
81107;BME280;70588;53.172;8.620;2023-07-28T05:03:24;100114.38;;;21.51;67.00
81107;BME280;70588;53.172;8.620;2023-07-28T05:05:49;100114.66;;;21.49;67.01
81107;BME280;70588;53.172;8.620;2023-07-28T05:08:15;100121.78;;;21.50;66.96
81107;BME280;70588;53.172;8.620;2023-07-28T05:10:41;100123.44;;;21.51;67.09
81107;BME280;70588;53.172;8.620;2023-07-28T05:13:08;100117.94;;;21.51;66.98
81107;BME280;70588;53.172;8.620;2023-07-28T05:15:33;100122.31;;;21.52;66.91
81107;BME280;70588;53.172;8.620;2023-07-28T05:17:59;100124.25;;;21.52;67.15
81107;BME280;70588;53.172;8.620;2023-07-28T05:20:24;100128.66;;;21.53;67.17
81107;BME280;70588;53.172;8.620;2023-07-28T05:22:50;100125.91;;;21.53;66.97
81107;BME280;70588;53.172;8.620;2023-07-28T05:25:15;100121.50;;;21.52;67.26
81107;BME280;70588;53.172;8.620;2023-07-28T05:27:41;100125.91;;;21.53;67.21
81107;BME280;70588;53.172;8.620;2023-07-28T05:30:07;100137.72;;;21.54;67.01
81107;BME280;70588;53.172;8.620;2023-07-28T05:32:33;100137.72;;;21.54;67.21
81107;BME280;70588;53.172;8.620;2023-07-28T05:34:58;100133.84;;;21.55;67.14
81107;BME280;70588;53.172;8.620;2023-07-28T05:37:24;100130.28;;;21.54;67.00
81107;BME280;70588;53.172;8.620;2023-07-28T05:39:49;100132.75;;;21.56;67.35
81107;BME280;70588;53.172;8.620;2023-07-28T05:42:15;100136.31;;;21.56;67.03
81107;BME280;70588;53.172;8.620;2023-07-28T05:44:40;100133.28;;;21.58;67.30
81107;BME280;70588;53.172;8.620;2023-07-28T05:47:06;100134.63;;;21.60;67.19
81107;BME280;70588;53.172;8.620;2023-07-28T05:49:31;100135.19;;;21.62;66.91
81107;BME280;70588;53.172;8.620;2023-07-28T05:51:57;100130.50;;;21.63;67.04
81107;BME280;70588;53.172;8.620;2023-07-28T05:54:22;100140.94;;;21.66;67.14
81107;BME280;70588;53.172;8.620;2023-07-28T05:56:48;100139.00;;;21.66;66.78
81107;BME280;70588;53.172;8.620;2023-07-28T05:59:13;100139.00;;;21.66;66.81
81107;BME280;70588;53.172;8.620;2023-07-28T06:01:39;100133.22;;;21.68;66.94
81107;BME280;70588;53.172;8.620;2023-07-28T06:04:04;100140.38;;;21.69;66.66
81107;BME280;70588;53.172;8.620;2023-07-28T06:06:29;100146.97;;;21.68;67.05
81107;BME280;70588;53.172;8.620;2023-07-28T06:08:55;100150.53;;;21.68;66.76
81107;BME280;70588;53.172;8.620;2023-07-28T06:11:20;100143.41;;;21.67;66.74
81107;BME280;70588;53.172;8.620;2023-07-28T06:13:47;100156.31;;;21.67;66.48
81107;BME280;70588;53.172;8.620;2023-07-28T06:16:15;100154.41;;;21.67;67.09
81107;BME280;70588;53.172;8.620;2023-07-28T06:18:41;100160.16;;;21.66;66.82
81107;BME280;70588;53.172;8.620;2023-07-28T06:21:07;100162.91;;;21.66;66.96
81107;BME280;70588;53.172;8.620;2023-07-28T06:23:32;100160.16;;;21.66;66.88
81107;BME280;70588;53.172;8.620;2023-07-28T06:25:58;100157.97;;;21.68;66.75
81107;BME280;70588;53.172;8.620;2023-07-28T06:28:23;100158.78;;;21.68;66.83
81107;BME280;70588;53.172;8.620;2023-07-28T06:30:55;100159.56;;;21.74;66.89
81107;BME280;70588;53.172;8.620;2023-07-28T06:33:21;100171.41;;;21.69;67.22
81107;BME280;70588;53.172;8.620;2023-07-28T06:35:46;100171.13;;;21.71;67.16
81107;BME280;70588;53.172;8.620;2023-07-28T06:38:12;100172.75;;;21.72;67.37
81107;BME280;70588;53.172;8.620;2023-07-28T06:40:37;100184.03;;;21.76;67.62
81107;BME280;70588;53.172;8.620;2023-07-28T06:43:03;100170.00;;;21.77;67.32
81107;BME280;70588;53.172;8.620;2023-07-28T06:45:28;100179.31;;;21.81;67.27
81107;BME280;70588;53.172;8.620;2023-07-28T06:47:54;100181.78;;;21.83;67.34
81107;BME280;70588;53.172;8.620;2023-07-28T06:50:19;100182.03;;;21.86;67.25
81107;BME280;70588;53.172;8.620;2023-07-28T06:52:45;100179.81;;;21.88;67.79
81107;BME280;70588;53.172;8.620;2023-07-28T06:55:11;100185.03;;;21.90;67.81
81107;BME280;70588;53.172;8.620;2023-07-28T06:57:37;100188.31;;;21.92;67.51
81107;BME280;70588;53.172;8.620;2023-07-28T07:00:02;100180.91;;;21.92;67.68
81107;BME280;70588;53.172;8.620;2023-07-28T07:02:28;100186.13;;;21.94;68.02
81107;BME280;70588;53.172;8.620;2023-07-28T07:04:54;100192.44;;;21.95;67.89
81107;BME280;70588;53.172;8.620;2023-07-28T07:07:19;100183.91;;;21.96;67.81
81107;BME280;70588;53.172;8.620;2023-07-28T07:09:45;100193.50;;;21.99;67.74
81107;BME280;70588;53.172;8.620;2023-07-28T07:12:10;100194.34;;;21.99;67.84
81107;BME280;70588;53.172;8.620;2023-07-28T07:14:36;100201.19;;;22.02;67.84
81107;BME280;70588;53.172;8.620;2023-07-28T07:17:01;100193.47;;;22.04;67.94
81107;BME280;70588;53.172;8.620;2023-07-28T07:19:28;100203.34;;;22.05;68.06
81107;BME280;70588;53.172;8.620;2023-07-28T07:21:54;100196.22;;;22.04;68.10
81107;BME280;70588;53.172;8.620;2023-07-28T07:24:19;100198.72;;;22.05;68.36
81107;BME280;70588;53.172;8.620;2023-07-28T07:26:45;100202.00;;;22.07;68.25
81107;BME280;70588;53.172;8.620;2023-07-28T07:29:10;100209.13;;;22.08;68.10
81107;BME280;70588;53.172;8.620;2023-07-28T07:31:36;100209.13;;;22.08;68.04
81107;BME280;70588;53.172;8.620;2023-07-28T07:34:01;100209.13;;;22.08;68.10
81107;BME280;70588;53.172;8.620;2023-07-28T07:36:27;100220.94;;;22.09;68.25
81107;BME280;70588;53.172;8.620;2023-07-28T07:38:52;100225.34;;;22.10;68.29
81107;BME280;70588;53.172;8.620;2023-07-28T07:41:18;100222.31;;;22.11;68.06
81107;BME280;70588;53.172;8.620;2023-07-28T07:43:47;100224.25;;;22.11;68.05
81107;BME280;70588;53.172;8.620;2023-07-28T07:46:14;100236.88;;;22.12;68.29
81107;BME280;70588;53.172;8.620;2023-07-28T07:48:40;100234.94;;;22.13;68.04
81107;BME280;70588;53.172;8.620;2023-07-28T07:51:06;100230.56;;;22.11;68.20
81107;BME280;70588;53.172;8.620;2023-07-28T07:53:32;100247.84;;;22.12;68.07
81107;BME280;70588;53.172;8.620;2023-07-28T07:55:57;100247.59;;;22.14;68.59
81107;BME280;70588;53.172;8.620;2023-07-28T07:58:22;100255.25;;;22.17;68.38
81107;BME280;70588;53.172;8.620;2023-07-28T08:00:48;100256.91;;;22.18;68.28
81107;BME280;70588;53.172;8.620;2023-07-28T08:03:13;100261.53;;;22.22;68.20
81107;BME280;70588;53.172;8.620;2023-07-28T08:05:39;100264.88;;;22.24;68.21
81107;BME280;70588;53.172;8.620;2023-07-28T08:08:04;100261.56;;;22.27;68.10
81107;BME280;70588;53.172;8.620;2023-07-28T08:10:32;100257.41;;;22.30;68.33
81107;BME280;70588;53.172;8.620;2023-07-28T08:12:58;100267.56;;;22.35;68.35
81107;BME280;70588;53.172;8.620;2023-07-28T08:15:25;100265.59;;;22.40;68.22
81107;BME280;70588;53.172;8.620;2023-07-28T08:17:50;100269.41;;;22.44;68.24
81107;BME280;70588;53.172;8.620;2023-07-28T08:20:16;100271.31;;;22.49;67.97
81107;BME280;70588;53.172;8.620;2023-07-28T08:22:41;100271.28;;;22.54;68.39
81107;BME280;70588;53.172;8.620;2023-07-28T08:25:07;100271.53;;;22.58;68.43
81107;BME280;70588;53.172;8.620;2023-07-28T08:27:33;100276.72;;;22.64;68.13
81107;BME280;70588;53.172;8.620;2023-07-28T08:29:58;100275.84;;;22.69;68.01
81107;BME280;70588;53.172;8.620;2023-07-28T08:32:24;100279.66;;;22.73;68.10
81107;BME280;70588;53.172;8.620;2023-07-28T08:34:49;100281.56;;;22.78;68.12
81107;BME280;70588;53.172;8.620;2023-07-28T08:37:15;100290.63;;;22.83;68.36
81107;BME280;70588;53.172;8.620;2023-07-28T08:39:40;100294.72;;;22.86;68.25
81107;BME280;70588;53.172;8.620;2023-07-28T08:42:06;100293.56;;;22.92;67.78
81107;BME280;70588;53.172;8.620;2023-07-28T08:44:32;100291.06;;;22.96;68.00
81107;BME280;70588;53.172;8.620;2023-07-28T08:47:02;100289.66;;;23.03;67.76
81107;BME280;70588;53.172;8.620;2023-07-28T08:49:29;100299.28;;;23.01;67.34
81107;BME280;70588;53.172;8.620;2023-07-28T08:51:59;100302.31;;;23.04;67.10
81107;BME280;70588;53.172;8.620;2023-07-28T08:54:24;100301.50;;;23.04;67.08
81107;BME280;70588;53.172;8.620;2023-07-28T08:56:50;100294.59;;;23.06;67.68
81107;BME280;70588;53.172;8.620;2023-07-28T08:59:22;100306.31;;;23.17;67.78
81107;BME280;70588;53.172;8.620;2023-07-28T09:01:50;100306.31;;;23.17;67.22
81107;BME280;70588;53.172;8.620;2023-07-28T09:04:15;100301.94;;;23.16;67.43
81107;BME280;70588;53.172;8.620;2023-07-28T09:06:45;100304.94;;;23.20;66.86
81107;BME280;70588;53.172;8.620;2023-07-28T09:09:10;100308.53;;;23.15;66.95
81107;BME280;70588;53.172;8.620;2023-07-28T09:11:46;100314.25;;;23.24;67.30
81107;BME280;70588;53.172;8.620;2023-07-28T09:14:14;100315.34;;;23.23;67.66
81107;BME280;70588;53.172;8.620;2023-07-28T09:16:41;100322.19;;;23.30;67.49
81107;BME280;70588;53.172;8.620;2023-07-28T09:19:08;100319.91;;;23.38;66.90
81107;BME280;70588;53.172;8.620;2023-07-28T09:21:34;100322.31;;;23.44;66.89
81107;BME280;70588;53.172;8.620;2023-07-28T09:24:00;100322.50;;;23.53;67.16
81107;BME280;70588;53.172;8.620;2023-07-28T09:26:44;100315.44;;;23.71;67.21
81107;BME280;70588;53.172;8.620;2023-07-28T09:29:22;100324.69;;;23.85;67.42
81107;BME280;70588;53.172;8.620;2023-07-28T09:31:50;100321.28;;;23.94;67.38
81107;BME280;70588;53.172;8.620;2023-07-28T09:34:35;100319.38;;;24.13;66.08
81107;BME280;70588;53.172;8.620;2023-07-28T09:37:01;100323.28;;;24.12;65.86
81107;BME280;70588;53.172;8.620;2023-07-28T09:39:27;100319.34;;;24.18;65.63
81107;BME280;70588;53.172;8.620;2023-07-28T09:41:54;100328.03;;;24.25;65.22
81107;BME280;70588;53.172;8.620;2023-07-28T09:44:23;100333.75;;;24.34;65.35
81107;BME280;70588;53.172;8.620;2023-07-28T09:46:50;100327.84;;;24.41;65.13
81107;BME280;70588;53.172;8.620;2023-07-28T09:49:20;100341.53;;;24.51;64.22
81107;BME280;70588;53.172;8.620;2023-07-28T09:51:48;100340.44;;;24.52;63.74
81107;BME280;70588;53.172;8.620;2023-07-28T09:54:24;100347.00;;;24.56;63.62
81107;BME280;70588;53.172;8.620;2023-07-28T09:56:55;100342.66;;;24.50;63.36
81107;BME280;70588;53.172;8.620;2023-07-28T09:59:27;100348.19;;;24.50;63.24
81107;BME280;70588;53.172;8.620;2023-07-28T10:01:55;100348.22;;;24.45;63.69
81107;BME280;70588;53.172;8.620;2023-07-28T10:04:21;100352.63;;;24.46;63.16
81107;BME280;70588;53.172;8.620;2023-07-28T10:06:46;100354.25;;;24.47;63.33
81107;BME280;70588;53.172;8.620;2023-07-28T10:09:13;100363.03;;;24.49;62.72
81107;BME280;70588;53.172;8.620;2023-07-28T10:11:41;100358.09;;;24.51;62.74
81107;BME280;70588;53.172;8.620;2023-07-28T10:14:07;100364.66;;;24.55;62.52
81107;BME280;70588;53.172;8.620;2023-07-28T10:16:39;100363.97;;;24.63;62.38
81107;BME280;70588;53.172;8.620;2023-07-28T10:19:05;100363.13;;;24.68;62.54
81107;BME280;70588;53.172;8.620;2023-07-28T10:21:31;100372.66;;;24.76;62.65
81107;BME280;70588;53.172;8.620;2023-07-28T10:23:59;100371.38;;;24.87;62.37
81107;BME280;70588;53.172;8.620;2023-07-28T10:26:35;100363.47;;;24.99;62.51
81107;BME280;70588;53.172;8.620;2023-07-28T10:29:15;100367.41;;;25.12;63.07
81107;BME280;70588;53.172;8.620;2023-07-28T10:31:52;100373.34;;;25.19;63.22
81107;BME280;70588;53.172;8.620;2023-07-28T10:34:19;100375.56;;;25.22;63.03
81107;BME280;70588;53.172;8.620;2023-07-28T10:36:45;100369.66;;;25.29;62.76
81107;BME280;70588;53.172;8.620;2023-07-28T10:39:14;100371.66;;;25.42;61.96
81107;BME280;70588;53.172;8.620;2023-07-28T10:44:26;100378.63;;;25.54;61.71
81107;BME280;70588;53.172;8.620;2023-07-28T10:46:52;100371.34;;;25.58;60.14
81107;BME280;70588;53.172;8.620;2023-07-28T10:49:18;100372.72;;;25.60;59.42
81107;BME280;70588;53.172;8.620;2023-07-28T10:51:43;100376.81;;;25.63;59.42
81107;BME280;70588;53.172;8.620;2023-07-28T10:54:08;100378.47;;;25.64;59.27
81107;BME280;70588;53.172;8.620;2023-07-28T10:56:34;100383.06;;;25.68;59.14
81107;BME280;70588;53.172;8.620;2023-07-28T10:59:03;100385.72;;;25.74;59.07
81107;BME280;70588;53.172;8.620;2023-07-28T11:01:37;100384.19;;;25.81;58.43
81107;BME280;70588;53.172;8.620;2023-07-28T11:04:19;100396.22;;;25.91;58.61
81107;BME280;70588;53.172;8.620;2023-07-28T11:06:47;100383.59;;;25.84;57.38
81107;BME280;70588;53.172;8.620;2023-07-28T11:09:14;100392.94;;;25.88;57.31
81107;BME280;70588;53.172;8.620;2023-07-28T11:11:41;100389.56;;;25.92;56.39
81107;BME280;70588;53.172;8.620;2023-07-28T11:14:07;100387.81;;;25.96;56.57
81107;BME280;70588;53.172;8.620;2023-07-28T11:16:35;100394.59;;;26.03;55.76
81107;BME280;70588;53.172;8.620;2023-07-28T11:19:02;100391.75;;;26.09;56.16
81107;BME280;70588;53.172;8.620;2023-07-28T11:21:28;100387.25;;;26.13;55.19
81107;BME280;70588;53.172;8.620;2023-07-28T11:23:54;100400.44;;;26.16;55.42
81107;BME280;70588;53.172;8.620;2023-07-28T11:26:20;100398.19;;;26.18;55.02
81107;BME280;70588;53.172;8.620;2023-07-28T11:28:47;100404.03;;;26.16;55.15
81107;BME280;70588;53.172;8.620;2023-07-28T11:31:13;100403.19;;;26.16;54.47
81107;BME280;70588;53.172;8.620;2023-07-28T11:33:39;100411.31;;;26.12;53.63
81107;BME280;70588;53.172;8.620;2023-07-28T11:36:05;100416.94;;;26.07;53.15
81107;BME280;70588;53.172;8.620;2023-07-28T11:38:31;100419.28;;;26.00;54.27
81107;BME280;70588;53.172;8.620;2023-07-28T11:40:58;100415.19;;;25.97;54.40
81107;BME280;70588;53.172;8.620;2023-07-28T11:43:23;100421.00;;;25.96;54.38
81107;BME280;70588;53.172;8.620;2023-07-28T11:45:49;100418.88;;;25.93;54.03
81107;BME280;70588;53.172;8.620;2023-07-28T11:48:14;100423.34;;;25.88;53.55
81107;BME280;70588;53.172;8.620;2023-07-28T11:50:41;100425.38;;;25.83;53.96
81107;BME280;70588;53.172;8.620;2023-07-28T11:53:08;100427.31;;;25.82;54.16
81107;BME280;70588;53.172;8.620;2023-07-28T11:55:35;100431.50;;;25.80;53.63
81107;BME280;70588;53.172;8.620;2023-07-28T11:58:02;100424.63;;;25.77;53.65
81107;BME280;70588;53.172;8.620;2023-07-28T12:00:36;100436.72;;;25.81;53.81
81107;BME280;70588;53.172;8.620;2023-07-28T12:03:06;100434.59;;;25.78;53.82
81107;BME280;70588;53.172;8.620;2023-07-28T12:05:35;100434.88;;;25.77;54.11
81107;BME280;70588;53.172;8.620;2023-07-28T12:08:01;100436.22;;;25.79;54.39
81107;BME280;70588;53.172;8.620;2023-07-28T12:10:28;100442.78;;;25.83;54.19
81107;BME280;70588;53.172;8.620;2023-07-28T12:12:54;100450.47;;;25.86;54.09
81107;BME280;70588;53.172;8.620;2023-07-28T12:15:30;100447.25;;;25.98;53.82
81107;BME280;70588;53.172;8.620;2023-07-28T12:20:36;100440.81;;;26.03;52.81
81107;BME280;70588;53.172;8.620;2023-07-28T12:23:02;100445.00;;;26.00;52.68
81107;BME280;70588;53.172;8.620;2023-07-28T12:25:29;100434.75;;;26.01;52.90
81107;BME280;70588;53.172;8.620;2023-07-28T12:27:54;100436.72;;;26.00;52.64
81107;BME280;70588;53.172;8.620;2023-07-28T12:30:20;100448.88;;;25.99;52.83
81107;BME280;70588;53.172;8.620;2023-07-28T12:32:46;100448.06;;;25.99;52.95
81107;BME280;70588;53.172;8.620;2023-07-28T12:35:12;100450.31;;;25.97;52.87
81107;BME280;70588;53.172;8.620;2023-07-28T12:37:38;100450.63;;;25.95;52.90
81107;BME280;70588;53.172;8.620;2023-07-28T12:40:04;100450.31;;;25.97;52.72
81107;BME280;70588;53.172;8.620;2023-07-28T12:42:31;100452.78;;;25.98;52.97
81107;BME280;70588;53.172;8.620;2023-07-28T12:44:57;100446.34;;;26.03;52.70
81107;BME280;70588;53.172;8.620;2023-07-28T12:47:22;100447.88;;;26.09;52.47
81107;BME280;70588;53.172;8.620;2023-07-28T12:49:48;100457.50;;;26.12;51.75
81107;BME280;70588;53.172;8.620;2023-07-28T12:52:13;100462.44;;;26.15;52.15
81107;BME280;70588;53.172;8.620;2023-07-28T12:54:38;100457.13;;;26.18;51.57
81107;BME280;70588;53.172;8.620;2023-07-28T12:57:05;100463.16;;;26.20;51.69